Time;durP1;ratioP1;P1;durP2;ratioP2;P2;SDS_P1;SDS_P2;PMS_P1;PMS_P2;Temp;Humidity;BMP_temperature;BMP_pressure;BME280_temperature;BME280_humidity;BME280_pressure;Samples;Min_cycle;Max_cycle;Signal;HPM_P1;HPM_P2
2022/06/24 00:00:14;;;;;;;5.97;2.70;;;;;;;16.88;60.75;98927.30;1657491;86;20986;-84
2022/06/24 00:02:49;;;;;;;6.28;2.92;;;;;;;16.88;60.70;98928.61;1661162;85;21017;-84
2022/06/24 00:05:16;;;;;;;7.62;2.80;;;;;;;16.90;61.30;98930.22;1620735;86;21127;-84
2022/06/24 00:07:51;;;;;;;10.18;3.50;;;;;;;16.92;60.13;98931.92;1566413;91;21545;-85
2022/06/24 00:10:25;;;;;;;9.45;3.27;;;;;;;16.92;60.63;98931.92;1590774;88;21046;-85
2022/06/24 00:12:53;;;;;;;10.55;2.75;;;;;;;16.96;60.55;98930.83;1609481;89;21014;-84
2022/06/24 00:15:34;;;;;;;6.08;3.00;;;;;;;16.98;59.59;98927.66;1592862;87;20994;-84
2022/06/24 00:18:16;;;;;;;5.67;2.72;;;;;;;16.97;59.84;98932.07;1586489;91;21097;-84
2022/06/24 00:20:46;;;;;;;7.33;3.22;;;;;;;16.99;61.18;98942.47;1601903;88;20972;-85
2022/06/24 00:23:21;;;;;;;6.62;3.30;;;;;;;16.99;60.72;98925.39;1603792;89;21072;-84
2022/06/24 00:25:50;;;;;;;13.65;3.90;;;;;;;16.93;61.06;98933.61;1585339;90;21043;-84
2022/06/24 00:28:17;;;;;;;11.38;4.15;;;;;;;16.84;60.06;98934.48;1582061;90;21052;-84
2022/06/24 00:30:52;;;;;;;13.43;4.37;;;;;;;16.75;62.00;98931.02;1583334;89;21084;-85
2022/06/24 00:33:22;;;;;;;6.47;3.42;;;;;;;16.69;60.33;98933.95;1586653;91;21059;-84
2022/06/24 00:35:52;;;;;;;8.33;3.60;;;;;;;16.62;61.29;98928.66;1578749;90;21057;-81
2022/06/24 00:38:36;;;;;;;9.35;4.20;;;;;;;16.54;63.77;98930.84;1586328;91;21052;-84
2022/06/24 00:41:10;;;;;;;12.25;4.20;;;;;;;16.46;64.42;98925.51;1583001;91;20972;-84
2022/06/24 00:43:43;;;;;;;8.30;4.25;;;;;;;16.42;63.53;98926.59;1591870;90;21022;-84
2022/06/24 00:46:27;;;;;;;10.32;4.03;;;;;;;16.38;62.66;98926.37;1584161;88;21026;-84
2022/06/24 00:48:57;;;;;;;10.48;3.90;;;;;;;16.32;62.97;98929.31;1588722;88;21030;-83
2022/06/24 00:51:37;;;;;;;9.23;3.70;;;;;;;16.25;62.55;98934.04;1601912;89;21576;-83
2022/06/24 00:54:10;;;;;;;9.00;3.90;;;;;;;16.22;63.73;98925.00;1591668;89;21008;-82
2022/06/24 00:56:37;;;;;;;10.65;4.50;;;;;;;16.20;61.90;98920.30;1599949;88;21004;-84
2022/06/24 00:59:07;;;;;;;10.45;3.98;;;;;;;16.16;63.22;98926.63;1598211;88;21038;-83
2022/06/24 01:01:40;;;;;;;9.10;3.55;;;;;;;16.15;63.20;98922.77;1602736;88;20980;-84
2022/06/24 01:04:09;;;;;;;12.13;3.70;;;;;;;16.13;62.44;98919.37;1601122;88;21113;-84
2022/06/24 01:06:38;;;;;;;7.95;3.70;;;;;;;16.10;62.94;98915.14;1625268;88;21023;-83
2022/06/24 01:09:07;;;;;;;7.42;3.87;;;;;;;16.10;62.49;98913.83;1637807;87;21023;-84
2022/06/24 01:11:38;;;;;;;8.80;3.90;;;;;;;16.07;63.83;98913.50;1615092;88;21038;-83
2022/06/24 01:14:05;;;;;;;8.03;4.15;;;;;;;16.08;64.46;98914.37;1615270;89;21017;-84
2022/06/24 01:16:34;;;;;;;15.65;4.10;;;;;;;16.09;63.75;98915.61;1614396;89;21005;-83
2022/06/24 01:19:07;;;;;;;12.37;3.60;;;;;;;16.07;64.96;98916.59;1617281;87;20997;-81
2022/06/24 01:21:46;;;;;;;10.72;3.90;;;;;;;16.08;65.01;98915.68;1614744;88;21068;-84
2022/06/24 01:24:21;;;;;;;10.75;3.77;;;;;;;16.08;64.74;98912.58;1592421;90;21045;-83
2022/06/24 01:26:55;;;;;;;7.72;3.83;;;;;;;16.10;64.68;98914.66;1592190;89;21065;-83
2022/06/24 01:29:25;;;;;;;8.00;3.80;;;;;;;16.14;65.83;98914.05;1575661;90;21049;-83
2022/06/24 01:31:54;;;;;;;8.05;3.40;;;;;;;16.16;65.30;98912.20;1592922;90;21071;-86
2022/06/24 01:34:24;;;;;;;9.63;3.90;;;;;;;16.20;65.09;98910.28;1604886;89;20991;-83
2022/06/24 01:36:51;;;;;;;7.08;3.85;;;;;;;16.21;66.11;98913.27;1618474;89;20987;-84
2022/06/24 01:39:19;;;;;;;8.40;4.33;;;;;;;16.21;66.24;98914.58;1599706;89;21515;-84
2022/06/24 01:41:46;;;;;;;9.45;4.35;;;;;;;16.20;66.17;98911.59;1592758;90;21048;-84
2022/06/24 01:44:13;;;;;;;10.72;4.10;;;;;;;16.17;65.65;98911.26;1596452;89;21026;-84
2022/06/24 01:46:40;;;;;;;11.70;4.22;;;;;;;16.16;64.96;98908.73;1592451;90;21515;-84
2022/06/24 01:49:07;;;;;;;8.05;3.75;;;;;;;16.13;66.50;98910.19;1590063;90;20993;-82
2022/06/24 01:51:37;;;;;;;7.40;3.60;;;;;;;16.08;65.88;98913.89;1592678;89;21403;-85
2022/06/24 01:54:04;;;;;;;10.13;3.58;;;;;;;16.04;64.84;98917.59;1592705;90;21446;-82
2022/06/24 01:56:30;;;;;;;6.55;4.05;;;;;;;16.01;66.77;98915.59;1592565;90;21061;-86
2022/06/24 01:58:57;;;;;;;10.95;3.83;;;;;;;15.97;66.09;98915.36;1643995;87;21014;-84
2022/06/24 02:01:24;;;;;;;7.28;3.37;;;;;;;15.93;65.96;98917.75;1623691;87;21025;-84
2022/06/24 02:03:50;;;;;;;7.33;3.22;;;;;;;15.87;66.19;98916.28;1614732;88;21077;-85
2022/06/24 02:06:17;;;;;;;9.60;3.40;;;;;;;15.78;65.44;98924.61;1619973;88;21484;-83
2022/06/24 02:08:44;;;;;;;8.93;3.33;;;;;;;15.69;65.21;98919.31;1575677;90;21064;-83
2022/06/24 02:13:59;;;;;;;7.78;3.30;;;;;;;15.48;63.87;98934.31;1620724;89;21487;-82
2022/06/24 02:16:27;;;;;;;8.50;3.90;;;;;;;15.36;66.35;98938.80;1647188;86;20994;-83
2022/06/24 02:18:55;;;;;;;5.58;3.35;;;;;;;15.27;67.46;98940.09;1650498;87;21033;-83
2022/06/24 02:21:22;;;;;;;7.12;3.35;;;;;;;15.21;65.93;98941.69;1657087;86;21062;-84
2022/06/24 02:23:49;;;;;;;7.15;3.20;;;;;;;15.14;65.76;98941.14;1647259;86;21039;-85
2022/06/24 02:26:16;;;;;;;11.55;3.10;;;;;;;15.11;67.00;98941.27;1647130;86;21029;-83
2022/06/24 02:28:44;;;;;;;11.38;3.22;;;;;;;15.11;66.88;98941.27;1650401;87;21033;-83
2022/06/24 02:31:11;;;;;;;8.88;3.22;;;;;;;15.12;67.80;98941.67;1657031;86;21068;-83
2022/06/24 02:33:37;;;;;;;9.38;3.58;;;;;;;15.12;67.66;98944.28;1662692;85;20978;-83
2022/06/24 02:36:05;;;;;;;5.30;3.30;;;;;;;15.15;68.71;98951.14;1650431;87;20983;-83
2022/06/24 02:38:32;;;;;;;8.00;3.37;;;;;;;15.17;67.22;98954.53;1647749;87;20964;-83
2022/06/24 02:41:00;;;;;;;6.92;3.77;;;;;;;15.19;67.60;98954.84;1626338;87;21044;-83
2022/06/24 02:43:32;;;;;;;8.18;3.62;;;;;;;15.23;66.40;98948.55;1651316;86;20965;-84
2022/06/24 02:46:09;;;;;;;11.60;3.47;;;;;;;15.21;66.99;98949.08;1670364;86;20997;-83
2022/06/24 02:48:39;;;;;;;10.18;3.77;;;;;;;15.21;66.46;98946.45;1648509;86;21014;-82
2022/06/24 02:51:08;;;;;;;8.73;3.60;;;;;;;15.19;67.42;98952.23;1592172;89;21055;-83
2022/06/24 02:53:35;;;;;;;8.85;3.60;;;;;;;15.18;66.37;98954.47;1634863;87;21005;-83
2022/06/24 02:56:13;;;;;;;13.25;3.87;;;;;;;15.18;67.46;98957.09;1620709;89;21049;-84
2022/06/24 02:58:41;;;;;;;8.03;3.70;;;;;;;15.22;67.14;98957.34;1604423;89;21021;-83
2022/06/24 03:01:10;;;;;;;8.28;3.62;;;;;;;15.30;67.70;98957.83;1620427;89;21027;-83
2022/06/24 03:03:37;;;;;;;8.70;3.87;;;;;;;15.34;68.36;98963.78;1620468;87;21065;-83
2022/06/24 03:06:04;;;;;;;8.15;3.85;;;;;;;15.36;68.15;98972.41;1620769;88;20993;-83
2022/06/24 03:08:31;;;;;;;9.63;3.85;;;;;;;15.42;68.69;98972.56;1642701;87;21047;-83
2022/06/24 03:10:58;;;;;;;11.95;4.05;;;;;;;15.46;67.93;98970.22;1624278;88;21034;-84
2022/06/24 03:13:25;;;;;;;11.53;4.03;;;;;;;15.49;67.54;98971.36;1617122;88;21055;-83
2022/06/24 03:15:52;;;;;;;15.32;4.25;;;;;;;15.57;68.10;98975.77;1612348;89;21528;-84
2022/06/24 03:18:19;;;;;;;12.05;4.22;;;;;;;15.61;67.85;98980.41;1622661;89;21026;-83
2022/06/24 03:20:46;;;;;;;11.10;4.12;;;;;;;15.65;68.00;98981.50;1628814;86;21003;-85
2022/06/24 03:23:15;;;;;;;11.70;4.62;;;;;;;15.68;67.38;98977.44;1617853;88;21063;-84
2022/06/24 03:25:42;;;;;;;15.38;5.25;;;;;;;15.70;67.33;98978.67;1628355;88;21021;-84
2022/06/24 03:28:09;;;;;;;11.45;3.95;;;;;;;15.74;68.99;98976.77;1635251;87;21003;-85
2022/06/24 03:30:36;;;;;;;10.45;4.50;;;;;;;15.80;67.49;98979.96;1633986;86;20967;-84
2022/06/24 03:33:03;;;;;;;16.70;3.72;;;;;;;15.84;67.04;98988.53;1622752;87;21006;-84
2022/06/24 03:35:30;;;;;;;8.03;3.60;;;;;;;15.87;67.19;98989.67;1650650;86;20963;-83
2022/06/24 03:37:57;;;;;;;8.95;3.87;;;;;;;15.91;67.60;98985.52;1639321;86;20999;-84
2022/06/24 03:40:24;;;;;;;16.05;4.40;;;;;;;15.97;67.97;98979.13;1611604;89;21020;-83
2022/06/24 03:42:51;;;;;;;8.70;3.83;;;;;;;16.01;67.32;98985.91;1645704;87;21052;-83
2022/06/24 03:45:18;;;;;;;8.78;3.65;;;;;;;16.08;67.67;98983.39;1623296;88;21479;-82
2022/06/24 03:47:45;;;;;;;8.33;3.45;;;;;;;16.14;67.12;98987.95;1597510;89;21132;-84
2022/06/24 03:50:11;;;;;;;9.10;3.65;;;;;;;16.22;67.18;98985.80;1622439;89;20995;-84
2022/06/24 03:52:38;;;;;;;7.15;3.45;;;;;;;16.28;67.66;98988.95;1632034;88;21030;-84
2022/06/24 03:55:06;;;;;;;12.05;3.92;;;;;;;16.35;66.67;98997.35;1623023;89;21059;-84
2022/06/24 03:57:32;;;;;;;11.55;3.77;;;;;;;16.38;66.32;98991.96;1634372;88;21028;-84
2022/06/24 03:59:59;;;;;;;9.63;3.95;;;;;;;16.40;65.10;98995.83;1652576;86;20996;-84
2022/06/24 04:02:26;;;;;;;6.55;2.92;;;;;;;16.38;65.87;98993.75;1648249;87;21107;-84
2022/06/24 04:04:53;;;;;;;9.50;3.62;;;;;;;16.38;66.88;98993.75;1624500;87;21146;-84
2022/06/24 04:07:19;;;;;;;6.10;3.70;;;;;;;16.37;65.78;98995.50;1605303;89;21056;-83
2022/06/24 04:09:46;;;;;;;9.03;3.40;;;;;;;16.38;65.55;98998.52;1628708;87;21070;-83
2022/06/24 04:12:13;;;;;;;8.50;3.08;;;;;;;16.36;65.99;99003.00;1625313;87;21006;-83
2022/06/24 04:17:25;;;;;;;5.65;2.92;;;;;;;16.38;66.50;99003.77;1637987;87;21172;-84
2022/06/24 04:19:53;;;;;;;6.22;2.67;;;;;;;16.43;66.20;99007.02;1637939;88;20993;-84
2022/06/24 04:22:23;;;;;;;8.20;3.17;;;;;;;16.41;66.20;99004.07;1621823;87;21013;-84
2022/06/24 04:24:49;;;;;;;7.15;3.30;;;;;;;16.42;66.02;99007.09;1625090;86;21033;-84
2022/06/24 04:27:16;;;;;;;15.40;3.35;;;;;;;16.42;65.70;99002.69;1622417;88;21144;-84
2022/06/24 04:29:43;;;;;;;7.35;3.15;;;;;;;16.39;66.37;99005.45;1618327;89;21511;-84
2022/06/24 04:32:10;;;;;;;9.48;3.50;;;;;;;16.39;65.77;99014.63;1636373;87;20974;-84
2022/06/24 04:34:38;;;;;;;7.58;3.50;;;;;;;16.26;67.70;99010.48;1615888;88;21030;-84
2022/06/24 04:37:06;;;;;;;8.63;3.12;;;;;;;16.29;65.84;99001.59;1621045;89;21057;-84
2022/06/24 04:39:33;;;;;;;6.30;3.05;;;;;;;16.29;66.22;99014.71;1619920;87;21048;-84
2022/06/24 04:42:00;;;;;;;5.75;2.98;;;;;;;16.24;66.76;99011.02;1618187;87;21050;-84
2022/06/24 04:44:27;;;;;;;6.55;3.25;;;;;;;16.29;66.18;99012.96;1619917;88;20990;-86
2022/06/24 04:46:53;;;;;;;5.92;2.83;;;;;;;16.32;66.20;99009.33;1635401;86;21020;-86
2022/06/24 04:49:20;;;;;;;5.53;2.90;;;;;;;16.29;67.69;99016.90;1618793;89;21050;-83
2022/06/24 04:51:47;;;;;;;7.90;2.95;;;;;;;16.34;68.17;99014.50;1619691;89;21031;-84
2022/06/24 04:54:14;;;;;;;7.25;2.72;;;;;;;16.37;67.09;99013.86;1619507;89;21030;-84
2022/06/24 04:56:40;;;;;;;10.93;2.72;;;;;;;16.47;66.67;99011.19;1616681;88;20968;-84
2022/06/24 04:59:07;;;;;;;5.92;2.62;;;;;;;16.49;67.33;99011.09;1632887;86;21045;-82
2022/06/24 05:01:34;;;;;;;6.72;3.00;;;;;;;16.53;67.04;99017.03;1637603;86;20980;-83
2022/06/24 05:04:02;;;;;;;8.50;2.83;;;;;;;16.62;66.80;99013.95;1616128;87;21578;-83
2022/06/24 05:06:29;;;;;;;8.28;3.30;;;;;;;16.66;66.35;99016.33;1643056;86;21064;-83
2022/06/24 05:08:56;;;;;;;8.40;3.10;;;;;;;16.74;66.21;99017.73;1608216;89;20995;-82
2022/06/24 05:11:23;;;;;;;6.85;3.10;;;;;;;16.80;65.98;99014.31;1591418;90;21082;-84
2022/06/24 05:13:50;;;;;;;6.17;3.22;;;;;;;16.86;65.88;99024.52;1606381;89;21062;-83
2022/06/24 05:16:17;;;;;;;6.55;3.17;;;;;;;16.95;65.66;99015.33;1588920;89;21149;-84
2022/06/24 05:18:44;;;;;;;7.47;3.12;;;;;;;17.03;65.21;99021.03;1592745;89;21013;-83
2022/06/24 05:21:11;;;;;;;9.60;3.40;;;;;;;17.08;65.79;99026.03;1628866;88;21040;-83
2022/06/24 05:23:38;;;;;;;5.97;3.20;;;;;;;17.14;65.05;99026.17;1608703;89;20994;-84
2022/06/24 05:26:07;;;;;;;7.58;3.80;;;;;;;17.22;64.86;99026.13;1583088;90;21512;-82
2022/06/24 05:28:37;;;;;;;7.60;3.52;;;;;;;17.32;64.08;99028.28;1606458;89;21058;-83
2022/06/24 05:31:04;;;;;;;8.28;3.40;;;;;;;17.39;64.46;99033.56;1625065;88;21028;-82
2022/06/24 05:33:33;;;;;;;8.93;3.33;;;;;;;17.47;64.26;99028.30;1611543;87;21636;-83
2022/06/24 05:36:00;;;;;;;8.13;3.02;;;;;;;17.59;63.95;99034.67;1623851;87;21024;-82
2022/06/24 05:38:26;;;;;;;6.17;2.98;;;;;;;17.68;63.31;99034.14;1607177;88;21006;-84
2022/06/24 05:40:53;;;;;;;7.72;3.20;;;;;;;17.76;63.16;99035.03;1606275;88;20978;-85
2022/06/24 05:43:21;;;;;;;7.65;3.20;;;;;;;17.84;62.84;99035.95;1613005;88;20993;-84
2022/06/24 05:45:48;;;;;;;6.42;3.12;;;;;;;17.95;62.80;99037.53;1618496;88;20964;-85
2022/06/24 05:48:16;;;;;;;9.70;3.20;;;;;;;18.07;62.80;99042.56;1592997;89;21045;-85
2022/06/24 05:50:43;;;;;;;8.20;3.05;;;;;;;18.18;62.34;99039.31;1590910;89;20997;-85
2022/06/24 05:56:00;;;;;;;5.35;3.30;;;;;;;18.40;61.77;99042.42;1649060;87;21446;-85
2022/06/24 05:58:29;;;;;;;5.28;2.75;;;;;;;18.49;61.77;99039.23;1633299;87;21020;-82
2022/06/24 06:00:56;;;;;;;10.08;3.00;;;;;;;18.59;61.50;99042.66;1632462;87;21049;-80
2022/06/24 06:03:25;;;;;;;5.47;3.10;;;;;;;18.70;61.14;99045.48;1631951;87;21013;-80
2022/06/24 06:05:52;;;;;;;6.55;3.37;;;;;;;18.78;61.10;99044.58;1637307;85;21031;-80
2022/06/24 06:08:19;;;;;;;4.60;2.95;;;;;;;18.90;61.01;99044.80;1634506;86;20976;-80
2022/06/24 06:10:45;;;;;;;12.00;3.22;;;;;;;19.02;60.86;99048.00;1643007;86;21573;-79
2022/06/24 06:13:13;;;;;;;10.03;2.83;;;;;;;19.16;60.63;99052.44;1618912;86;20993;-81
2022/06/24 06:15:42;;;;;;;5.87;2.90;;;;;;;19.30;60.36;99051.59;1642943;86;21531;-81
2022/06/24 06:18:09;;;;;;;6.17;2.70;;;;;;;19.42;59.85;99049.53;1642628;86;20994;-79
2022/06/24 06:20:37;;;;;;;7.28;2.80;;;;;;;19.54;59.35;99051.88;1655467;85;21042;-84
2022/06/24 06:23:04;;;;;;;10.35;2.90;;;;;;;19.66;58.99;99048.47;1653756;85;21063;-83
2022/06/24 06:25:33;;;;;;;4.85;2.90;;;;;;;19.76;58.74;99044.33;1635291;86;21035;-79
2022/06/24 06:28:04;;;;;;;6.35;3.25;;;;;;;19.91;58.46;99042.97;1614610;86;21053;-80
2022/06/24 06:30:31;;;;;;;8.20;4.00;;;;;;;20.03;57.99;99050.95;1643219;86;21066;-80
2022/06/24 06:32:57;;;;;;;9.75;3.75;;;;;;;20.16;57.54;99050.98;1615068;87;21055;-80
2022/06/24 06:35:24;;;;;;;8.03;2.72;;;;;;;20.26;56.39;99060.47;1650256;85;21025;-83
2022/06/24 06:37:51;;;;;;;6.45;2.90;;;;;;;20.33;56.54;99051.19;1646604;85;21010;-79
2022/06/24 06:40:18;;;;;;;7.05;2.85;;;;;;;20.46;55.88;99063.95;1658319;85;20987;-82
2022/06/24 06:42:46;;;;;;;9.43;2.75;;;;;;;20.58;56.04;99050.89;1651546;85;21033;-82
2022/06/24 06:45:13;;;;;;;6.58;3.02;;;;;;;20.70;55.62;99051.89;1651961;85;21018;-80
2022/06/24 06:47:40;;;;;;;6.53;2.70;;;;;;;20.81;55.30;99051.54;1650758;85;21028;-81
2022/06/24 06:50:07;;;;;;;9.68;2.90;;;;;;;20.91;54.71;99048.25;1631775;86;20977;-80
2022/06/24 06:52:34;;;;;;;6.30;2.80;;;;;;;21.01;54.37;99046.70;1616753;87;21969;-81
2022/06/24 06:55:02;;;;;;;6.15;2.70;;;;;;;21.10;54.02;99051.33;1646235;86;21006;-79
2022/06/24 06:57:29;;;;;;;5.70;3.02;;;;;;;21.21;54.00;99049.27;1643137;86;21051;-81
2022/06/24 06:59:56;;;;;;;5.67;2.60;;;;;;;21.31;51.88;99054.73;1654635;85;21595;-81
2022/06/24 07:02:23;;;;;;;9.98;2.80;;;;;;;21.28;52.76;99049.69;1614765;86;21046;-80
2022/06/24 07:04:49;;;;;;;6.50;3.10;;;;;;;21.34;52.63;99047.92;1632552;86;21049;-78
2022/06/24 07:07:16;;;;;;;5.65;2.67;;;;;;;21.42;52.26;99049.55;1628936;86;21014;-80
2022/06/24 07:09:44;;;;;;;5.70;2.75;;;;;;;21.49;52.10;99048.20;1621899;87;21043;-79
2022/06/24 07:12:11;;;;;;;9.10;3.02;;;;;;;21.55;51.94;99049.09;1626054;87;21014;-80
2022/06/24 07:14:41;;;;;;;9.23;2.80;;;;;;;21.58;51.87;99047.53;1602824;88;21037;-82
2022/06/24 07:17:09;;;;;;;5.67;2.35;;;;;;;21.65;51.60;99050.61;1652325;86;21057;-81
2022/06/24 07:19:36;;;;;;;8.83;2.80;;;;;;;21.75;51.27;99040.20;1622247;87;21011;-79
2022/06/24 07:22:03;;;;;;;9.60;2.65;;;;;;;21.77;50.88;99053.69;1626876;87;22021;-82
2022/06/24 07:24:30;;;;;;;9.70;2.50;;;;;;;21.79;50.96;99046.97;1627049;87;21002;-80
2022/06/24 07:26:57;;;;;;;5.75;2.50;;;;;;;21.82;50.57;99041.44;1623075;87;21503;-81
2022/06/24 07:29:24;;;;;;;5.20;2.27;;;;;;;21.90;48.97;99047.50;1624075;87;21587;-82
2022/06/24 07:31:51;;;;;;;6.08;2.45;;;;;;;21.96;49.28;99029.84;1638026;86;21094;-81
2022/06/24 07:34:18;;;;;;;7.87;2.22;;;;;;;22.03;49.38;99039.05;1650183;86;21063;-79
2022/06/24 07:36:45;;;;;;;4.53;2.20;;;;;;;22.08;48.84;99036.05;1647927;86;21664;-79
2022/06/24 07:39:12;;;;;;;4.75;2.20;;;;;;;22.12;46.72;99034.86;1647794;86;21037;-80
2022/06/24 07:41:39;;;;;;;7.60;1.95;;;;;;;22.14;48.16;99028.48;1651360;86;20984;-80
2022/06/24 07:44:05;;;;;;;11.03;2.90;;;;;;;22.24;48.09;99032.20;1657060;86;21007;-82
2022/06/24 07:46:32;;;;;;;5.92;2.22;;;;;;;22.37;48.01;99030.79;1652651;86;21482;-81
2022/06/24 07:48:59;;;;;;;5.30;2.10;;;;;;;22.48;46.29;99027.81;1646809;86;21015;-82
2022/06/24 07:51:26;;;;;;;4.70;2.25;;;;;;;22.53;47.34;99029.16;1620493;87;21015;-81
2022/06/24 07:53:53;;;;;;;6.50;2.33;;;;;;;22.64;46.57;99020.38;1625551;87;21050;-80
2022/06/24 07:59:06;;;;;;;3.58;1.90;;;;;;;22.68;44.31;99021.86;1626445;87;21082;-80
2022/06/24 08:01:33;;;;;;;3.37;1.98;;;;;;;22.76;46.01;99015.95;1628621;86;21013;-79
2022/06/24 08:04:00;;;;;;;9.73;2.33;;;;;;;22.90;45.78;99014.43;1635600;86;21706;-81
2022/06/24 08:06:27;;;;;;;6.10;2.08;;;;;;;23.00;46.16;99009.27;1640357;86;21015;-81
2022/06/24 08:08:54;;;;;;;4.28;1.95;;;;;;;23.13;45.30;99017.12;1642897;86;21085;-81
2022/06/24 08:11:21;;;;;;;7.92;2.00;;;;;;;23.22;45.58;99001.33;1647554;86;21015;-81
2022/06/24 08:13:47;;;;;;;10.15;2.08;;;;;;;23.31;45.29;99004.22;1643313;86;21448;-82
2022/06/24 08:16:14;;;;;;;7.58;2.75;;;;;;;23.43;44.05;98997.93;1618733;87;21521;-82
2022/06/24 08:18:41;;;;;;;12.75;4.25;;;;;;;23.50;44.76;99001.79;1621655;87;21553;-81
2022/06/24 08:21:08;;;;;;;10.10;2.45;;;;;;;23.60;44.94;98998.75;1619106;87;21028;-82
2022/06/24 08:23:37;;;;;;;4.78;2.10;;;;;;;23.73;44.32;98995.09;1615264;87;21039;-82
2022/06/24 08:26:05;;;;;;;6.17;1.77;;;;;;;23.87;42.69;98999.32;1640928;86;21546;-85
2022/06/24 08:28:32;;;;;;;7.92;2.02;;;;;;;23.91;43.55;99000.26;1651045;85;21015;-84
2022/06/24 08:30:59;;;;;;;6.35;2.17;;;;;;;24.00;43.70;99003.99;1646555;86;21013;-82
2022/06/24 08:33:26;;;;;;;7.05;2.10;;;;;;;24.08;43.23;99007.34;1586230;88;20992;-87
2022/06/24 08:35:53;;;;;;;6.15;2.12;;;;;;;24.16;42.86;99003.08;1613599;87;21066;-79
2022/06/24 08:38:20;;;;;;;3.30;1.98;;;;;;;24.21;41.86;99010.66;1594398;89;20997;-80
2022/06/24 08:40:48;;;;;;;7.35;2.40;;;;;;;24.24;42.15;99010.41;1590024;89;21037;-81
2022/06/24 08:43:16;;;;;;;5.75;2.10;;;;;;;24.28;39.64;99003.03;1643648;86;21648;-83
2022/06/24 08:45:43;;;;;;;4.75;1.92;;;;;;;24.34;40.54;99002.52;1638663;86;21026;-81
2022/06/24 08:48:11;;;;;;;4.58;2.05;;;;;;;24.37;41.94;99000.92;1624587;86;20968;-81
2022/06/24 08:50:38;;;;;;;4.10;2.22;;;;;;;24.48;42.00;98996.88;1653362;86;20955;-82
2022/06/24 08:53:08;;;;;;;9.45;2.20;;;;;;;24.61;40.72;98994.05;1624779;86;20971;-79
2022/06/24 08:55:41;;;;;;;5.83;2.00;;;;;;;24.67;40.07;98990.90;1645477;86;21031;-81
2022/06/24 08:58:10;;;;;;;10.53;4.22;;;;;;;24.65;40.34;98992.84;1642521;86;21304;-81
2022/06/24 09:00:38;;;;;;;8.18;2.60;;;;;;;24.69;40.59;98990.28;1617057;87;20994;-82
2022/06/24 09:03:06;;;;;;;6.30;2.33;;;;;;;24.75;40.10;98997.73;1591428;89;21098;-82
2022/06/24 09:05:33;;;;;;;3.80;2.15;;;;;;;24.75;39.97;98991.08;1605906;88;21003;-82
2022/06/24 09:08:08;;;;;;;8.60;2.10;;;;;;;24.75;39.64;98988.42;1620180;86;21614;-81
2022/06/24 09:10:38;;;;;;;14.38;4.83;;;;;;;24.81;40.12;98990.55;1616428;87;20992;-81
2022/06/24 09:13:06;;;;;;;10.60;2.40;;;;;;;24.89;40.46;98990.36;1615022;87;21115;-81
2022/06/24 09:15:32;;;;;;;9.25;2.67;;;;;;;24.95;40.13;98987.20;1620195;87;21009;-82
2022/06/24 09:18:00;;;;;;;7.45;2.80;;;;;;;25.02;40.18;98984.34;1616414;86;21586;-81
2022/06/24 09:20:30;;;;;;;4.90;2.30;;;;;;;25.13;40.16;98978.94;1611830;88;21065;-81
2022/06/24 09:23:04;;;;;;;5.30;2.55;;;;;;;25.18;40.35;98981.19;1616265;88;21061;-81
2022/06/24 09:25:49;;;;;;;4.35;2.77;;;;;;;25.28;40.56;98974.61;1616337;87;21032;-82
2022/06/24 09:28:32;;;;;;;4.70;2.30;;;;;;;25.39;40.12;98975.34;1599668;88;21142;-81
2022/06/24 09:31:05;;;;;;;8.53;2.00;;;;;;;25.51;40.04;98972.58;1615825;88;21036;-84
2022/06/24 09:33:44;;;;;;;5.87;2.00;;;;;;;25.54;38.37;98965.14;1622278;87;20956;-85
2022/06/24 09:36:13;;;;;;;3.35;1.90;;;;;;;25.60;39.56;98965.95;1613084;87;21050;-80
2022/06/24 09:39:03;;;;;;;4.75;2.95;;;;;;;25.68;39.87;98956.41;1620104;87;20984;-84
2022/06/24 09:41:55;;;;;;;7.37;2.12;;;;;;;25.82;39.25;98956.50;1619688;86;21135;-80
2022/06/24 09:44:24;;;;;;;3.35;2.00;;;;;;;25.88;39.06;98951.45;1616611;87;21036;-81
2022/06/24 09:47:04;;;;;;;5.15;1.87;;;;;;;26.03;39.35;98952.41;1615550;87;21011;-83
2022/06/24 09:49:31;;;;;;;3.25;1.82;;;;;;;26.18;39.28;98951.84;1619527;87;21042;-80
2022/06/24 09:51:58;;;;;;;5.37;1.92;;;;;;;26.36;38.35;98943.11;1621687;87;21017;-81
2022/06/24 09:54:26;;;;;;;4.45;1.70;;;;;;;26.48;38.54;98943.32;1614318;87;21021;-81
2022/06/24 09:56:55;;;;;;;3.02;2.00;;;;;;;26.57;38.46;98942.44;1601124;88;21000;-80
2022/06/24 10:02:15;;;;;;;2.72;1.65;;;;;;;26.78;37.47;98940.94;1600042;88;21521;-79
2022/06/24 10:04:47;;;;;;;6.50;1.92;;;;;;;26.85;36.46;98939.02;1603027;88;21039;-80
2022/06/24 10:07:14;;;;;;;3.00;1.57;;;;;;;26.95;36.82;98938.48;1611090;88;21064;-81
2022/06/24 10:09:41;;;;;;;6.00;1.50;;;;;;;27.02;36.95;98933.39;1649433;86;21027;-81
2022/06/24 10:12:09;;;;;;;5.05;1.92;;;;;;;27.16;36.71;98940.93;1615358;87;21074;-80
2022/06/24 10:14:36;;;;;;;3.77;1.60;;;;;;;27.29;36.45;98936.09;1628669;87;21020;-80
2022/06/24 10:17:04;;;;;;;3.33;1.80;;;;;;;27.44;36.19;98936.44;1597640;88;21065;-82
2022/06/24 10:19:31;;;;;;;7.15;1.85;;;;;;;27.52;35.12;98935.69;1592837;89;20997;-82
2022/06/24 10:21:58;;;;;;;6.80;1.75;;;;;;;27.60;34.64;98926.43;1594257;88;21003;-84
2022/06/24 10:24:25;;;;;;;3.08;1.40;;;;;;;27.72;33.46;98928.38;1591411;89;21057;-81
2022/06/24 10:26:52;;;;;;;2.95;1.52;;;;;;;27.79;34.46;98922.75;1585199;89;21066;-84
2022/06/24 10:29:26;;;;;;;2.98;1.60;;;;;;;27.88;33.95;98926.39;1606594;88;21072;-81
2022/06/24 10:32:00;;;;;;;3.37;1.62;;;;;;;27.97;33.38;98921.44;1599098;88;20992;-82
2022/06/24 10:34:33;;;;;;;3.37;1.67;;;;;;;28.09;33.30;98914.89;1601528;88;21037;-84
2022/06/24 10:37:22;;;;;;;4.37;3.17;;;;;;;28.15;32.77;98916.08;1598407;88;21493;-81
2022/06/24 10:39:55;;;;;;;5.70;2.52;;;;;;;28.22;32.63;98917.14;1601055;88;21048;-79
2022/06/24 10:42:24;;;;;;;5.20;1.85;;;;;;;28.29;32.10;98913.34;1601161;88;21013;-82
2022/06/24 10:45:00;;;;;;;4.83;1.50;;;;;;;28.38;31.69;98916.42;1597104;89;21788;-79
2022/06/24 10:47:39;;;;;;;3.05;1.55;;;;;;;28.47;32.13;98904.80;1597551;88;21080;-80
2022/06/24 10:50:12;;;;;;;4.20;2.02;;;;;;;28.54;31.51;98902.34;1599406;88;20995;-80
2022/06/24 10:52:51;;;;;;;3.62;1.70;;;;;;;28.62;31.79;98898.38;1600146;87;21083;-79
2022/06/24 10:55:29;;;;;;;4.08;1.45;;;;;;;28.76;31.80;98897.78;1598129;88;20997;-80
2022/06/24 10:58:00;;;;;;;3.90;1.80;;;;;;;28.88;31.11;98897.50;1595139;88;21149;-80
2022/06/24 11:00:48;;;;;;;5.05;1.85;;;;;;;28.89;30.68;98895.19;1596143;88;21057;-79
2022/06/24 11:03:15;;;;;;;2.02;1.40;;;;;;;28.89;29.49;98891.17;1590947;88;21007;-80
2022/06/24 11:05:45;;;;;;;2.47;1.50;;;;;;;28.82;29.73;98890.95;1595189;88;21126;-79
2022/06/24 11:08:21;;;;;;;6.90;2.33;;;;;;;28.81;29.37;98880.41;1627238;85;21056;-81
2022/06/24 11:10:49;;;;;;;3.65;1.47;;;;;;;28.84;29.21;98878.77;1645050;85;21012;-79
2022/06/24 11:13:17;;;;;;;4.30;1.70;;;;;;;28.84;29.24;98885.45;1649400;85;21468;-79
2022/06/24 11:15:55;;;;;;;5.37;1.75;;;;;;;28.86;29.18;98883.45;1647432;85;21067;-80
2022/06/24 11:18:33;;;;;;;2.72;1.60;;;;;;;28.97;29.64;98881.84;1645513;85;20972;-79
2022/06/24 11:21:07;;;;;;;3.17;1.35;;;;;;;29.08;29.09;98880.18;1646718;85;21518;-79
2022/06/24 11:23:37;;;;;;;3.47;1.75;;;;;;;29.19;28.72;98884.92;1654925;85;21002;-80
2022/06/24 11:26:12;;;;;;;4.00;1.52;;;;;;;29.26;28.61;98887.30;1649495;85;21094;-80
2022/06/24 11:28:41;;;;;;;6.30;2.52;;;;;;;29.39;27.83;98882.31;1651736;85;21006;-78
2022/06/24 11:31:18;;;;;;;4.45;2.42;;;;;;;29.38;27.77;98881.13;1651804;85;20991;-79
2022/06/24 11:34:10;;;;;;;4.28;1.70;;;;;;;29.48;26.67;98879.14;1652548;85;20997;-79
2022/06/24 11:36:38;;;;;;;4.72;1.60;;;;;;;29.40;26.57;98873.78;1654042;85;21030;-80
2022/06/24 11:39:09;;;;;;;2.10;1.20;;;;;;;29.27;27.05;98870.25;1653298;85;20987;-81
2022/06/24 11:41:42;;;;;;;3.22;1.60;;;;;;;29.31;27.15;98864.91;1650699;85;21010;-82
2022/06/24 11:44:11;;;;;;;2.98;1.60;;;;;;;29.42;25.25;98870.43;1656372;85;20983;-84
2022/06/24 11:46:37;;;;;;;7.42;1.65;;;;;;;29.45;26.50;98879.48;1654424;85;21064;-83
2022/06/24 11:49:12;;;;;;;3.37;1.70;;;;;;;29.59;25.77;98877.49;1658660;85;20976;-82
2022/06/24 11:51:41;;;;;;;7.00;1.60;;;;;;;29.62;25.95;98863.75;1654205;85;21004;-82
2022/06/24 11:54:09;;;;;;;2.80;1.67;;;;;;;29.80;26.15;98869.48;1654583;85;20984;-81